sensor_id;sensor_type;location;lat;lon;timestamp;temperature;humidity
24814;DHT22;12904;50.088;11.414;2023-10-31T00:01:48;11.80;99.90
24814;DHT22;12904;50.088;11.414;2023-10-31T00:04:15;11.90;99.90
24814;DHT22;12904;50.088;11.414;2023-10-31T00:06:40;11.90;99.90
24814;DHT22;12904;50.088;11.414;2023-10-31T00:09:06;11.90;99.90
24814;DHT22;12904;50.088;11.414;2023-10-31T00:11:32;11.90;99.90
24814;DHT22;12904;50.088;11.414;2023-10-31T00:13:57;11.80;99.90
24814;DHT22;12904;50.088;11.414;2023-10-31T00:16:23;11.80;99.90
24814;DHT22;12904;50.088;11.414;2023-10-31T00:18:49;11.80;99.90
24814;DHT22;12904;50.088;11.414;2023-10-31T00:21:14;11.80;99.90
24814;DHT22;12904;50.088;11.414;2023-10-31T00:23:49;11.80;99.90
24814;DHT22;12904;50.088;11.414;2023-10-31T00:26:15;11.80;99.90
24814;DHT22;12904;50.088;11.414;2023-10-31T00:28:41;11.80;99.90
24814;DHT22;12904;50.088;11.414;2023-10-31T00:31:07;11.70;99.90
24814;DHT22;12904;50.088;11.414;2023-10-31T00:33:34;11.70;99.90
24814;DHT22;12904;50.088;11.414;2023-10-31T00:36:00;11.70;99.90
24814;DHT22;12904;50.088;11.414;2023-10-31T00:38:26;11.70;99.90
24814;DHT22;12904;50.088;11.414;2023-10-31T00:40:51;11.70;99.90
24814;DHT22;12904;50.088;11.414;2023-10-31T00:43:17;11.70;99.90
24814;DHT22;12904;50.088;11.414;2023-10-31T00:45:43;11.70;99.90
24814;DHT22;12904;50.088;11.414;2023-10-31T00:48:08;11.80;99.90
24814;DHT22;12904;50.088;11.414;2023-10-31T00:50:34;11.80;99.90
24814;DHT22;12904;50.088;11.414;2023-10-31T00:52:59;11.80;99.90
24814;DHT22;12904;50.088;11.414;2023-10-31T00:55:25;11.90;99.90
24814;DHT22;12904;50.088;11.414;2023-10-31T00:57:51;11.90;99.90
24814;DHT22;12904;50.088;11.414;2023-10-31T01:00:17;11.90;99.90
24814;DHT22;12904;50.088;11.414;2023-10-31T01:02:42;11.90;99.90
24814;DHT22;12904;50.088;11.414;2023-10-31T01:05:08;11.90;99.90
24814;DHT22;12904;50.088;11.414;2023-10-31T01:07:34;11.90;99.90
24814;DHT22;12904;50.088;11.414;2023-10-31T01:10:01;11.90;99.90
24814;DHT22;12904;50.088;11.414;2023-10-31T01:12:26;11.90;99.90
24814;DHT22;12904;50.088;11.414;2023-10-31T01:14:54;11.90;99.90
24814;DHT22;12904;50.088;11.414;2023-10-31T01:17:20;11.90;99.90
24814;DHT22;12904;50.088;11.414;2023-10-31T01:19:46;11.90;99.90
24814;DHT22;12904;50.088;11.414;2023-10-31T01:22:12;11.80;99.90
24814;DHT22;12904;50.088;11.414;2023-10-31T01:24:37;11.80;99.90
24814;DHT22;12904;50.088;11.414;2023-10-31T01:27:03;11.80;99.90
24814;DHT22;12904;50.088;11.414;2023-10-31T01:29:29;11.80;99.90
24814;DHT22;12904;50.088;11.414;2023-10-31T01:31:54;11.80;99.90
24814;DHT22;12904;50.088;11.414;2023-10-31T01:34:20;11.70;99.90
24814;DHT22;12904;50.088;11.414;2023-10-31T01:36:45;11.70;99.90
24814;DHT22;12904;50.088;11.414;2023-10-31T01:39:11;11.70;99.90
24814;DHT22;12904;50.088;11.414;2023-10-31T01:41:37;11.70;99.90
24814;DHT22;12904;50.088;11.414;2023-10-31T01:44:02;11.70;99.90
24814;DHT22;12904;50.088;11.414;2023-10-31T01:46:28;11.70;99.90
24814;DHT22;12904;50.088;11.414;2023-10-31T01:48:54;11.70;99.90
24814;DHT22;12904;50.088;11.414;2023-10-31T01:51:19;11.70;99.90
24814;DHT22;12904;50.088;11.414;2023-10-31T01:53:45;11.70;99.90
24814;DHT22;12904;50.088;11.414;2023-10-31T01:56:11;11.70;99.90
24814;DHT22;12904;50.088;11.414;2023-10-31T01:58:38;11.70;99.90
24814;DHT22;12904;50.088;11.414;2023-10-31T02:01:04;11.60;99.90
24814;DHT22;12904;50.088;11.414;2023-10-31T02:03:31;11.60;99.90
24814;DHT22;12904;50.088;11.414;2023-10-31T02:05:58;11.70;99.90
24814;DHT22;12904;50.088;11.414;2023-10-31T02:08:25;11.70;99.90
24814;DHT22;12904;50.088;11.414;2023-10-31T02:10:50;11.70;99.90
24814;DHT22;12904;50.088;11.414;2023-10-31T02:13:17;11.70;99.90
24814;DHT22;12904;50.088;11.414;2023-10-31T02:15:44;11.70;99.90
24814;DHT22;12904;50.088;11.414;2023-10-31T02:18:10;11.80;99.90
24814;DHT22;12904;50.088;11.414;2023-10-31T02:20:36;11.80;99.90
24814;DHT22;12904;50.088;11.414;2023-10-31T02:23:02;11.90;99.90
24814;DHT22;12904;50.088;11.414;2023-10-31T02:25:28;11.90;99.90
24814;DHT22;12904;50.088;11.414;2023-10-31T02:27:54;11.90;99.90
24814;DHT22;12904;50.088;11.414;2023-10-31T02:30:20;11.90;99.90
24814;DHT22;12904;50.088;11.414;2023-10-31T02:32:45;11.90;99.90
24814;DHT22;12904;50.088;11.414;2023-10-31T02:35:11;11.90;99.90
24814;DHT22;12904;50.088;11.414;2023-10-31T02:37:37;11.90;99.90
24814;DHT22;12904;50.088;11.414;2023-10-31T02:40:03;11.90;99.90
24814;DHT22;12904;50.088;11.414;2023-10-31T02:42:28;11.90;99.90
24814;DHT22;12904;50.088;11.414;2023-10-31T02:44:54;11.80;99.90
24814;DHT22;12904;50.088;11.414;2023-10-31T02:47:20;11.80;99.90
24814;DHT22;12904;50.088;11.414;2023-10-31T02:49:46;11.80;99.90
24814;DHT22;12904;50.088;11.414;2023-10-31T02:52:11;11.80;99.90
24814;DHT22;12904;50.088;11.414;2023-10-31T02:54:37;11.80;99.90
24814;DHT22;12904;50.088;11.414;2023-10-31T02:57:03;11.70;99.90
24814;DHT22;12904;50.088;11.414;2023-10-31T02:59:29;11.70;99.90
24814;DHT22;12904;50.088;11.414;2023-10-31T03:01:56;11.70;99.90
24814;DHT22;12904;50.088;11.414;2023-10-31T03:04:22;11.60;99.90
24814;DHT22;12904;50.088;11.414;2023-10-31T03:06:47;11.60;99.90
24814;DHT22;12904;50.088;11.414;2023-10-31T03:09:13;11.60;99.90
24814;DHT22;12904;50.088;11.414;2023-10-31T03:11:38;11.60;99.90
24814;DHT22;12904;50.088;11.414;2023-10-31T03:14:04;11.60;99.90
24814;DHT22;12904;50.088;11.414;2023-10-31T03:16:30;11.50;99.90
24814;DHT22;12904;50.088;11.414;2023-10-31T03:18:56;11.50;99.90
24814;DHT22;12904;50.088;11.414;2023-10-31T03:21:21;11.50;99.90
24814;DHT22;12904;50.088;11.414;2023-10-31T03:23:49;11.50;99.90
24814;DHT22;12904;50.088;11.414;2023-10-31T03:26:16;11.60;99.90
24814;DHT22;12904;50.088;11.414;2023-10-31T03:28:43;11.50;99.90
24814;DHT22;12904;50.088;11.414;2023-10-31T03:31:09;11.60;99.90
24814;DHT22;12904;50.088;11.414;2023-10-31T03:33:35;11.60;99.90
24814;DHT22;12904;50.088;11.414;2023-10-31T03:36:01;11.60;99.90
24814;DHT22;12904;50.088;11.414;2023-10-31T03:38:27;11.60;99.90
24814;DHT22;12904;50.088;11.414;2023-10-31T03:40:53;11.60;99.90
24814;DHT22;12904;50.088;11.414;2023-10-31T03:43:19;11.60;99.90
24814;DHT22;12904;50.088;11.414;2023-10-31T03:45:46;11.60;99.90
24814;DHT22;12904;50.088;11.414;2023-10-31T03:48:12;11.60;99.90
24814;DHT22;12904;50.088;11.414;2023-10-31T03:50:38;11.50;99.90
24814;DHT22;12904;50.088;11.414;2023-10-31T03:53:03;11.50;99.90
24814;DHT22;12904;50.088;11.414;2023-10-31T03:55:29;11.50;99.90
24814;DHT22;12904;50.088;11.414;2023-10-31T03:57:55;11.50;99.90
24814;DHT22;12904;50.088;11.414;2023-10-31T04:00:21;11.40;99.90
24814;DHT22;12904;50.088;11.414;2023-10-31T04:02:47;11.40;99.90
24814;DHT22;12904;50.088;11.414;2023-10-31T04:05:12;11.40;99.90
24814;DHT22;12904;50.088;11.414;2023-10-31T04:07:38;11.40;99.90
24814;DHT22;12904;50.088;11.414;2023-10-31T04:10:04;11.40;99.90
24814;DHT22;12904;50.088;11.414;2023-10-31T04:12:31;11.30;99.90
24814;DHT22;12904;50.088;11.414;2023-10-31T04:14:56;11.30;99.90
24814;DHT22;12904;50.088;11.414;2023-10-31T04:17:22;11.30;99.90
24814;DHT22;12904;50.088;11.414;2023-10-31T04:19:48;11.30;99.90
24814;DHT22;12904;50.088;11.414;2023-10-31T04:22:13;11.30;99.90
24814;DHT22;12904;50.088;11.414;2023-10-31T04:24:39;11.30;99.90
24814;DHT22;12904;50.088;11.414;2023-10-31T04:27:06;11.20;99.90
24814;DHT22;12904;50.088;11.414;2023-10-31T04:29:32;11.20;99.90
24814;DHT22;12904;50.088;11.414;2023-10-31T04:31:58;11.20;99.90
24814;DHT22;12904;50.088;11.414;2023-10-31T04:34:23;11.20;99.90
24814;DHT22;12904;50.088;11.414;2023-10-31T04:36:49;11.20;99.90
24814;DHT22;12904;50.088;11.414;2023-10-31T04:39:15;11.20;99.90
24814;DHT22;12904;50.088;11.414;2023-10-31T04:41:41;11.20;99.90
24814;DHT22;12904;50.088;11.414;2023-10-31T04:44:06;11.10;99.90
24814;DHT22;12904;50.088;11.414;2023-10-31T04:46:32;11.10;99.90
24814;DHT22;12904;50.088;11.414;2023-10-31T04:48:57;11.00;99.90
24814;DHT22;12904;50.088;11.414;2023-10-31T04:51:23;11.00;99.90
24814;DHT22;12904;50.088;11.414;2023-10-31T04:53:49;11.00;99.90
24814;DHT22;12904;50.088;11.414;2023-10-31T04:56:15;11.00;99.90
24814;DHT22;12904;50.088;11.414;2023-10-31T04:58:42;11.00;99.90
24814;DHT22;12904;50.088;11.414;2023-10-31T05:01:12;11.00;99.90
24814;DHT22;12904;50.088;11.414;2023-10-31T05:03:38;10.90;99.90
24814;DHT22;12904;50.088;11.414;2023-10-31T05:06:04;10.90;99.90
24814;DHT22;12904;50.088;11.414;2023-10-31T05:08:30;10.90;99.90
24814;DHT22;12904;50.088;11.414;2023-10-31T05:10:57;11.00;99.90
24814;DHT22;12904;50.088;11.414;2023-10-31T05:13:22;11.00;99.90
24814;DHT22;12904;50.088;11.414;2023-10-31T05:15:48;10.90;99.90
24814;DHT22;12904;50.088;11.414;2023-10-31T05:18:14;10.90;99.90
24814;DHT22;12904;50.088;11.414;2023-10-31T05:20:39;10.90;99.90
24814;DHT22;12904;50.088;11.414;2023-10-31T05:23:05;10.80;99.90
24814;DHT22;12904;50.088;11.414;2023-10-31T05:25:31;10.90;99.90
24814;DHT22;12904;50.088;11.414;2023-10-31T05:27:56;10.90;99.90
24814;DHT22;12904;50.088;11.414;2023-10-31T05:30:22;10.90;99.90
24814;DHT22;12904;50.088;11.414;2023-10-31T05:32:49;10.90;99.90
24814;DHT22;12904;50.088;11.414;2023-10-31T05:35:15;10.90;99.90
24814;DHT22;12904;50.088;11.414;2023-10-31T05:37:41;10.90;99.90
24814;DHT22;12904;50.088;11.414;2023-10-31T05:40:07;10.90;99.90
24814;DHT22;12904;50.088;11.414;2023-10-31T05:42:32;10.90;99.90
24814;DHT22;12904;50.088;11.414;2023-10-31T05:44:58;10.80;99.90
24814;DHT22;12904;50.088;11.414;2023-10-31T05:47:24;10.70;99.90
24814;DHT22;12904;50.088;11.414;2023-10-31T05:49:50;10.70;99.90
24814;DHT22;12904;50.088;11.414;2023-10-31T05:52:15;10.70;99.90
24814;DHT22;12904;50.088;11.414;2023-10-31T05:54:41;10.60;99.90
24814;DHT22;12904;50.088;11.414;2023-10-31T05:57:06;10.50;99.90
24814;DHT22;12904;50.088;11.414;2023-10-31T05:59:32;10.50;99.90
24814;DHT22;12904;50.088;11.414;2023-10-31T06:01:58;10.40;99.90
24814;DHT22;12904;50.088;11.414;2023-10-31T06:04:24;10.40;99.90
24814;DHT22;12904;50.088;11.414;2023-10-31T06:06:51;10.40;99.90
24814;DHT22;12904;50.088;11.414;2023-10-31T06:09:16;10.40;99.90
24814;DHT22;12904;50.088;11.414;2023-10-31T06:11:42;10.40;99.90
24814;DHT22;12904;50.088;11.414;2023-10-31T06:14:09;10.50;99.90
24814;DHT22;12904;50.088;11.414;2023-10-31T06:16:43;10.50;99.90
24814;DHT22;12904;50.088;11.414;2023-10-31T06:19:09;10.50;99.90
24814;DHT22;12904;50.088;11.414;2023-10-31T06:21:35;10.60;99.90
24814;DHT22;12904;50.088;11.414;2023-10-31T06:24:01;10.60;99.90
24814;DHT22;12904;50.088;11.414;2023-10-31T06:26:27;10.60;99.90
24814;DHT22;12904;50.088;11.414;2023-10-31T06:28:53;10.70;99.90
24814;DHT22;12904;50.088;11.414;2023-10-31T06:31:19;10.70;99.90
24814;DHT22;12904;50.088;11.414;2023-10-31T06:33:44;10.70;99.90
24814;DHT22;12904;50.088;11.414;2023-10-31T06:36:10;10.70;99.90
24814;DHT22;12904;50.088;11.414;2023-10-31T06:38:35;10.70;99.90
24814;DHT22;12904;50.088;11.414;2023-10-31T06:41:01;10.70;99.90
24814;DHT22;12904;50.088;11.414;2023-10-31T06:43:27;10.70;99.90
24814;DHT22;12904;50.088;11.414;2023-10-31T06:45:54;10.80;99.90
24814;DHT22;12904;50.088;11.414;2023-10-31T06:48:19;10.80;99.90
24814;DHT22;12904;50.088;11.414;2023-10-31T06:50:45;10.80;99.90
24814;DHT22;12904;50.088;11.414;2023-10-31T06:53:10;10.80;99.90
24814;DHT22;12904;50.088;11.414;2023-10-31T06:55:36;10.80;99.90
24814;DHT22;12904;50.088;11.414;2023-10-31T06:58:02;10.80;99.90
24814;DHT22;12904;50.088;11.414;2023-10-31T07:00:28;10.90;99.90
24814;DHT22;12904;50.088;11.414;2023-10-31T07:02:53;10.90;99.90
24814;DHT22;12904;50.088;11.414;2023-10-31T07:05:19;10.90;99.90
24814;DHT22;12904;50.088;11.414;2023-10-31T07:07:48;10.90;99.90
24814;DHT22;12904;50.088;11.414;2023-10-31T07:10:13;11.00;99.90
24814;DHT22;12904;50.088;11.414;2023-10-31T07:12:39;11.00;99.90
24814;DHT22;12904;50.088;11.414;2023-10-31T07:15:05;11.00;99.90
24814;DHT22;12904;50.088;11.414;2023-10-31T07:17:31;10.90;99.90
24814;DHT22;12904;50.088;11.414;2023-10-31T07:19:56;10.90;99.90
24814;DHT22;12904;50.088;11.414;2023-10-31T07:22:23;11.00;99.90
24814;DHT22;12904;50.088;11.414;2023-10-31T07:24:50;11.00;99.90
24814;DHT22;12904;50.088;11.414;2023-10-31T07:27:16;11.00;99.90
24814;DHT22;12904;50.088;11.414;2023-10-31T07:29:42;11.10;99.90
24814;DHT22;12904;50.088;11.414;2023-10-31T07:32:08;11.10;99.90
24814;DHT22;12904;50.088;11.414;2023-10-31T07:34:34;11.10;99.90
24814;DHT22;12904;50.088;11.414;2023-10-31T07:37:00;11.20;99.90
24814;DHT22;12904;50.088;11.414;2023-10-31T07:39:26;11.30;99.90
24814;DHT22;12904;50.088;11.414;2023-10-31T07:41:51;11.30;99.90
24814;DHT22;12904;50.088;11.414;2023-10-31T07:44:17;11.30;99.90
24814;DHT22;12904;50.088;11.414;2023-10-31T07:46:43;11.40;99.90
24814;DHT22;12904;50.088;11.414;2023-10-31T07:49:08;11.40;99.90
24814;DHT22;12904;50.088;11.414;2023-10-31T07:51:34;11.40;99.90
24814;DHT22;12904;50.088;11.414;2023-10-31T07:54:00;11.50;99.90
24814;DHT22;12904;50.088;11.414;2023-10-31T07:56:26;11.50;99.90
24814;DHT22;12904;50.088;11.414;2023-10-31T07:58:51;11.50;99.90
24814;DHT22;12904;50.088;11.414;2023-10-31T08:01:18;11.50;99.90
24814;DHT22;12904;50.088;11.414;2023-10-31T08:03:45;11.40;99.90
24814;DHT22;12904;50.088;11.414;2023-10-31T08:06:11;11.40;99.90
24814;DHT22;12904;50.088;11.414;2023-10-31T08:08:36;11.30;99.90
24814;DHT22;12904;50.088;11.414;2023-10-31T08:11:02;11.10;99.90
24814;DHT22;12904;50.088;11.414;2023-10-31T08:13:29;11.00;99.90
24814;DHT22;12904;50.088;11.414;2023-10-31T08:15:55;11.00;99.90
24814;DHT22;12904;50.088;11.414;2023-10-31T08:18:23;10.90;99.90
24814;DHT22;12904;50.088;11.414;2023-10-31T08:20:48;10.90;99.90
24814;DHT22;12904;50.088;11.414;2023-10-31T08:23:16;10.90;99.90
24814;DHT22;12904;50.088;11.414;2023-10-31T08:25:42;10.90;99.90
24814;DHT22;12904;50.088;11.414;2023-10-31T08:28:08;10.90;99.90
24814;DHT22;12904;50.088;11.414;2023-10-31T08:30:33;10.90;99.90
24814;DHT22;12904;50.088;11.414;2023-10-31T08:32:59;11.00;99.90
24814;DHT22;12904;50.088;11.414;2023-10-31T08:35:25;11.10;99.90
24814;DHT22;12904;50.088;11.414;2023-10-31T08:37:50;11.30;99.90
24814;DHT22;12904;50.088;11.414;2023-10-31T08:40:16;11.40;99.90
24814;DHT22;12904;50.088;11.414;2023-10-31T08:42:42;11.40;99.90
24814;DHT22;12904;50.088;11.414;2023-10-31T08:45:08;11.50;99.90
24814;DHT22;12904;50.088;11.414;2023-10-31T08:47:34;11.60;99.90
24814;DHT22;12904;50.088;11.414;2023-10-31T08:50:00;11.60;99.90
24814;DHT22;12904;50.088;11.414;2023-10-31T08:52:26;11.60;99.90
24814;DHT22;12904;50.088;11.414;2023-10-31T08:54:51;11.60;99.90
24814;DHT22;12904;50.088;11.414;2023-10-31T08:57:17;11.60;99.90
24814;DHT22;12904;50.088;11.414;2023-10-31T08:59:42;11.60;99.90
24814;DHT22;12904;50.088;11.414;2023-10-31T09:02:08;11.60;99.90
24814;DHT22;12904;50.088;11.414;2023-10-31T09:04:34;11.60;99.90
24814;DHT22;12904;50.088;11.414;2023-10-31T09:07:00;11.60;99.90
24814;DHT22;12904;50.088;11.414;2023-10-31T09:09:26;11.60;99.90
24814;DHT22;12904;50.088;11.414;2023-10-31T09:11:51;11.60;99.90
24814;DHT22;12904;50.088;11.414;2023-10-31T09:14:17;11.70;99.90
24814;DHT22;12904;50.088;11.414;2023-10-31T09:16:43;11.70;99.90
24814;DHT22;12904;50.088;11.414;2023-10-31T09:19:09;11.70;99.90
24814;DHT22;12904;50.088;11.414;2023-10-31T09:21:34;11.70;99.90
24814;DHT22;12904;50.088;11.414;2023-10-31T09:24:00;11.70;99.90
24814;DHT22;12904;50.088;11.414;2023-10-31T09:26:26;11.70;99.90
24814;DHT22;12904;50.088;11.414;2023-10-31T09:28:52;11.80;99.90
24814;DHT22;12904;50.088;11.414;2023-10-31T09:31:18;11.80;99.90
24814;DHT22;12904;50.088;11.414;2023-10-31T09:33:44;11.70;99.90
24814;DHT22;12904;50.088;11.414;2023-10-31T09:36:10;11.70;99.90
24814;DHT22;12904;50.088;11.414;2023-10-31T09:38:36;11.70;99.90
24814;DHT22;12904;50.088;11.414;2023-10-31T09:41:02;11.60;99.90
24814;DHT22;12904;50.088;11.414;2023-10-31T09:43:28;11.60;99.90
24814;DHT22;12904;50.088;11.414;2023-10-31T09:45:54;11.50;99.90
24814;DHT22;12904;50.088;11.414;2023-10-31T09:48:21;11.50;99.90
24814;DHT22;12904;50.088;11.414;2023-10-31T09:50:47;11.60;99.90
24814;DHT22;12904;50.088;11.414;2023-10-31T09:53:15;11.60;99.90
24814;DHT22;12904;50.088;11.414;2023-10-31T09:55:42;11.60;99.90
24814;DHT22;12904;50.088;11.414;2023-10-31T09:58:08;11.70;99.90
24814;DHT22;12904;50.088;11.414;2023-10-31T10:00:34;11.60;99.90
24814;DHT22;12904;50.088;11.414;2023-10-31T10:03:03;11.60;99.90
24814;DHT22;12904;50.088;11.414;2023-10-31T10:05:31;11.60;99.90
24814;DHT22;12904;50.088;11.414;2023-10-31T10:07:57;11.50;99.90
24814;DHT22;12904;50.088;11.414;2023-10-31T10:10:24;11.60;99.90
24814;DHT22;12904;50.088;11.414;2023-10-31T10:12:52;11.70;99.90
24814;DHT22;12904;50.088;11.414;2023-10-31T10:15:18;11.70;99.90
24814;DHT22;12904;50.088;11.414;2023-10-31T10:17:52;11.70;99.90
24814;DHT22;12904;50.088;11.414;2023-10-31T10:20:18;11.70;99.90
24814;DHT22;12904;50.088;11.414;2023-10-31T10:22:45;11.80;99.90
24814;DHT22;12904;50.088;11.414;2023-10-31T10:25:15;11.90;99.90
24814;DHT22;12904;50.088;11.414;2023-10-31T10:27:42;12.00;99.90
24814;DHT22;12904;50.088;11.414;2023-10-31T10:30:08;12.00;99.90
24814;DHT22;12904;50.088;11.414;2023-10-31T10:32:34;12.00;99.90
24814;DHT22;12904;50.088;11.414;2023-10-31T10:34:59;12.00;99.90
24814;DHT22;12904;50.088;11.414;2023-10-31T10:37:26;12.00;99.90
24814;DHT22;12904;50.088;11.414;2023-10-31T10:39:53;12.00;99.90
24814;DHT22;12904;50.088;11.414;2023-10-31T10:42:46;12.00;99.90
24814;DHT22;12904;50.088;11.414;2023-10-31T10:45:14;12.00;99.90
24814;DHT22;12904;50.088;11.414;2023-10-31T10:47:47;12.00;99.90
24814;DHT22;12904;50.088;11.414;2023-10-31T10:50:13;12.10;99.90
24814;DHT22;12904;50.088;11.414;2023-10-31T10:52:50;12.00;99.90
24814;DHT22;12904;50.088;11.414;2023-10-31T10:55:24;12.00;99.90
24814;DHT22;12904;50.088;11.414;2023-10-31T11:00:22;12.40;99.90
24814;DHT22;12904;50.088;11.414;2023-10-31T11:02:51;12.70;99.90
24814;DHT22;12904;50.088;11.414;2023-10-31T11:05:18;12.90;99.90
24814;DHT22;12904;50.088;11.414;2023-10-31T11:07:44;13.00;99.90
24814;DHT22;12904;50.088;11.414;2023-10-31T11:10:11;12.90;99.90
24814;DHT22;12904;50.088;11.414;2023-10-31T11:12:37;12.90;99.90
24814;DHT22;12904;50.088;11.414;2023-10-31T11:15:06;12.90;99.90
24814;DHT22;12904;50.088;11.414;2023-10-31T11:17:37;12.80;99.90
24814;DHT22;12904;50.088;11.414;2023-10-31T11:20:04;12.70;99.90
24814;DHT22;12904;50.088;11.414;2023-10-31T11:22:40;12.50;99.90
24814;DHT22;12904;50.088;11.414;2023-10-31T11:25:10;12.30;99.90
24814;DHT22;12904;50.088;11.414;2023-10-31T11:27:36;12.20;99.90
24814;DHT22;12904;50.088;11.414;2023-10-31T11:30:05;12.10;99.90
24814;DHT22;12904;50.088;11.414;2023-10-31T11:32:32;12.00;99.90
24814;DHT22;12904;50.088;11.414;2023-10-31T11:34:59;11.90;99.90
24814;DHT22;12904;50.088;11.414;2023-10-31T11:37:32;11.90;99.90
24814;DHT22;12904;50.088;11.414;2023-10-31T11:40:19;11.80;99.90
24814;DHT22;12904;50.088;11.414;2023-10-31T11:42:53;11.80;99.90
24814;DHT22;12904;50.088;11.414;2023-10-31T11:45:31;11.70;99.90
24814;DHT22;12904;50.088;11.414;2023-10-31T11:47:57;11.70;99.90
24814;DHT22;12904;50.088;11.414;2023-10-31T11:50:23;11.60;99.90
24814;DHT22;12904;50.088;11.414;2023-10-31T11:52:59;11.60;99.90
24814;DHT22;12904;50.088;11.414;2023-10-31T11:55:25;11.60;99.90
24814;DHT22;12904;50.088;11.414;2023-10-31T11:57:51;11.60;99.90
24814;DHT22;12904;50.088;11.414;2023-10-31T12:00:23;11.60;99.90
24814;DHT22;12904;50.088;11.414;2023-10-31T12:03:01;11.60;99.90
24814;DHT22;12904;50.088;11.414;2023-10-31T12:05:28;11.60;99.90
24814;DHT22;12904;50.088;11.414;2023-10-31T12:07:54;11.60;99.90
24814;DHT22;12904;50.088;11.414;2023-10-31T12:10:28;11.60;99.90
24814;DHT22;12904;50.088;11.414;2023-10-31T12:12:55;11.60;99.90
24814;DHT22;12904;50.088;11.414;2023-10-31T12:15:22;11.60;99.90
24814;DHT22;12904;50.088;11.414;2023-10-31T12:17:48;11.60;99.90
24814;DHT22;12904;50.088;11.414;2023-10-31T12:20:14;11.50;99.90
24814;DHT22;12904;50.088;11.414;2023-10-31T12:22:41;11.50;99.90
24814;DHT22;12904;50.088;11.414;2023-10-31T12:25:08;11.50;99.90
24814;DHT22;12904;50.088;11.414;2023-10-31T12:27:47;11.50;99.90
24814;DHT22;12904;50.088;11.414;2023-10-31T12:30:17;11.60;99.90
24814;DHT22;12904;50.088;11.414;2023-10-31T12:32:44;11.70;99.90
24814;DHT22;12904;50.088;11.414;2023-10-31T12:35:14;11.80;99.90
24814;DHT22;12904;50.088;11.414;2023-10-31T12:37:45;11.80;99.90
24814;DHT22;12904;50.088;11.414;2023-10-31T12:40:17;11.80;99.90
24814;DHT22;12904;50.088;11.414;2023-10-31T12:42:45;11.80;99.90
24814;DHT22;12904;50.088;11.414;2023-10-31T12:45:15;11.90;99.90
24814;DHT22;12904;50.088;11.414;2023-10-31T12:47:42;11.90;99.90
24814;DHT22;12904;50.088;11.414;2023-10-31T12:52:54;11.80;99.90
24814;DHT22;12904;50.088;11.414;2023-10-31T12:55:22;11.80;99.90
24814;DHT22;12904;50.088;11.414;2023-10-31T12:57:49;11.70;99.90
24814;DHT22;12904;50.088;11.414;2023-10-31T13:00:16;11.70;99.90
24814;DHT22;12904;50.088;11.414;2023-10-31T13:02:44;11.70;99.90
24814;DHT22;12904;50.088;11.414;2023-10-31T13:05:11;11.60;99.90
24814;DHT22;12904;50.088;11.414;2023-10-31T13:07:37;11.60;99.90
24814;DHT22;12904;50.088;11.414;2023-10-31T13:10:04;11.50;99.90
24814;DHT22;12904;50.088;11.414;2023-10-31T13:12:31;11.60;99.90
24814;DHT22;12904;50.088;11.414;2023-10-31T13:14:56;11.60;99.90
24814;DHT22;12904;50.088;11.414;2023-10-31T13:17:22;11.60;99.90
24814;DHT22;12904;50.088;11.414;2023-10-31T13:19:48;11.60;99.90
24814;DHT22;12904;50.088;11.414;2023-10-31T13:22:13;11.60;99.90
24814;DHT22;12904;50.088;11.414;2023-10-31T13:24:39;11.50;99.90
24814;DHT22;12904;50.088;11.414;2023-10-31T13:27:06;11.50;99.90
24814;DHT22;12904;50.088;11.414;2023-10-31T13:29:31;11.50;99.90
24814;DHT22;12904;50.088;11.414;2023-10-31T13:31:58;11.50;99.90
24814;DHT22;12904;50.088;11.414;2023-10-31T13:34:24;11.50;99.90
24814;DHT22;12904;50.088;11.414;2023-10-31T13:36:49;11.60;99.90
24814;DHT22;12904;50.088;11.414;2023-10-31T13:39:15;11.60;99.90
24814;DHT22;12904;50.088;11.414;2023-10-31T13:41:41;11.60;99.90
24814;DHT22;12904;50.088;11.414;2023-10-31T13:44:06;11.60;99.90
24814;DHT22;12904;50.088;11.414;2023-10-31T13:46:32;11.70;99.90
24814;DHT22;12904;50.088;11.414;2023-10-31T13:48:58;11.70;99.90
24814;DHT22;12904;50.088;11.414;2023-10-31T13:51:23;11.80;99.90
24814;DHT22;12904;50.088;11.414;2023-10-31T13:53:49;11.80;99.90
24814;DHT22;12904;50.088;11.414;2023-10-31T13:56:15;11.70;99.90
24814;DHT22;12904;50.088;11.414;2023-10-31T13:58:42;11.70;99.90
24814;DHT22;12904;50.088;11.414;2023-10-31T14:01:07;11.70;99.90
24814;DHT22;12904;50.088;11.414;2023-10-31T14:03:33;11.70;99.90
24814;DHT22;12904;50.088;11.414;2023-10-31T14:05:58;11.60;99.90
24814;DHT22;12904;50.088;11.414;2023-10-31T14:08:24;11.60;99.90
24814;DHT22;12904;50.088;11.414;2023-10-31T14:10:50;11.60;99.90
24814;DHT22;12904;50.088;11.414;2023-10-31T14:13:16;11.60;99.90
24814;DHT22;12904;50.088;11.414;2023-10-31T14:15:42;11.60;99.90
24814;DHT22;12904;50.088;11.414;2023-10-31T14:18:07;11.60;99.90
24814;DHT22;12904;50.088;11.414;2023-10-31T14:20:33;11.60;99.90
24814;DHT22;12904;50.088;11.414;2023-10-31T14:22:59;11.60;99.90
24814;DHT22;12904;50.088;11.414;2023-10-31T14:25:24;11.60;99.90
24814;DHT22;12904;50.088;11.414;2023-10-31T14:27:50;11.60;99.90
24814;DHT22;12904;50.088;11.414;2023-10-31T14:30:15;11.60;99.90
24814;DHT22;12904;50.088;11.414;2023-10-31T14:32:41;11.60;99.90
24814;DHT22;12904;50.088;11.414;2023-10-31T14:35:07;11.60;99.90
24814;DHT22;12904;50.088;11.414;2023-10-31T14:37:33;11.60;99.90
24814;DHT22;12904;50.088;11.414;2023-10-31T14:40:00;11.60;99.90
24814;DHT22;12904;50.088;11.414;2023-10-31T14:42:26;11.60;99.90
24814;DHT22;12904;50.088;11.414;2023-10-31T14:44:51;11.60;99.90
24814;DHT22;12904;50.088;11.414;2023-10-31T14:47:18;11.60;99.90
24814;DHT22;12904;50.088;11.414;2023-10-31T14:49:44;11.60;99.90
24814;DHT22;12904;50.088;11.414;2023-10-31T14:52:10;11.50;99.90
24814;DHT22;12904;50.088;11.414;2023-10-31T14:54:35;11.50;99.90
24814;DHT22;12904;50.088;11.414;2023-10-31T14:57:02;11.50;99.90
24814;DHT22;12904;50.088;11.414;2023-10-31T14:59:28;11.50;99.90
24814;DHT22;12904;50.088;11.414;2023-10-31T15:01:53;11.50;99.90
24814;DHT22;12904;50.088;11.414;2023-10-31T15:04:19;11.50;99.90
24814;DHT22;12904;50.088;11.414;2023-10-31T15:06:44;11.50;99.90
24814;DHT22;12904;50.088;11.414;2023-10-31T15:09:10;11.50;99.90
24814;DHT22;12904;50.088;11.414;2023-10-31T15:11:36;11.50;99.90
24814;DHT22;12904;50.088;11.414;2023-10-31T15:14:02;11.40;99.90
24814;DHT22;12904;50.088;11.414;2023-10-31T15:16:28;11.40;99.90